Time;durP1;ratioP1;P1;durP2;ratioP2;P2;SDS_P1;SDS_P2;PMS_P1;PMS_P2;Temp;Humidity;BMP_temperature;BMP_pressure;BME280_temperature;BME280_humidity;BME280_pressure;Samples;Min_cycle;Max_cycle;Signal;HPM_P1;HPM_P2
2021/03/11 00:01:56;;;;;;;53.87;24.35;;;;;;;-1.16;49.59;100620.03;1796492;79;21120;-69
2021/03/11 00:04:22;;;;;;;57.45;26.20;;;;;;;-1.17;49.65;100623.58;1796545;79;21167;-70
2021/03/11 00:06:49;;;;;;;62.67;28.42;;;;;;;-1.20;49.73;100618.53;1796542;79;21143;-70
2021/03/11 00:09:15;;;;;;;69.82;30.52;;;;;;;-1.21;49.78;100620.76;1796590;79;21296;-70
2021/03/11 00:11:41;;;;;;;67.25;31.48;;;;;;;-1.23;49.86;100614.78;1796489;79;21123;-70
2021/03/11 00:14:08;;;;;;;62.10;27.73;;;;;;;-1.25;49.94;100621.86;1796433;79;21159;-70
2021/03/11 00:16:34;;;;;;;62.62;27.60;;;;;;;-1.27;50.02;100617.20;1796347;79;21111;-69
2021/03/11 00:19:00;;;;;;;70.20;30.02;;;;;;;-1.29;50.10;100621.66;1796765;79;21132;-69
2021/03/11 00:21:26;;;;;;;61.63;24.90;;;;;;;-1.30;50.16;100618.69;1796508;79;21207;-69
2021/03/11 00:23:53;;;;;;;61.45;26.55;;;;;;;-1.31;50.25;100611.77;1796598;79;21144;-69
2021/03/11 00:26:19;;;;;;;62.73;26.20;;;;;;;-1.31;50.31;100609.16;1789233;79;21124;-69
2021/03/11 00:28:45;;;;;;;66.50;28.45;;;;;;;-1.33;50.40;100605.30;1785846;80;21187;-69
2021/03/11 00:31:11;;;;;;;65.03;28.40;;;;;;;-1.33;50.47;100598.77;1785740;80;21584;-69
2021/03/11 00:33:37;;;;;;;67.95;27.98;;;;;;;-1.33;50.50;100595.30;1785848;80;21252;-69
2021/03/11 00:36:04;;;;;;;60.28;27.58;;;;;;;-1.36;50.60;100588.95;1785878;80;21583;-69
2021/03/11 00:38:30;;;;;;;58.42;25.43;;;;;;;-1.37;50.66;100585.98;1785966;80;21116;-69
2021/03/11 00:40:57;;;;;;;69.42;29.05;;;;;;;-1.39;50.76;100577.36;1785811;80;21128;-69
2021/03/11 00:43:23;;;;;;;62.35;27.95;;;;;;;-1.38;50.81;100582.98;1785853;80;21140;-69
2021/03/11 00:45:49;;;;;;;60.88;27.77;;;;;;;-1.37;50.88;100576.83;1785925;80;21577;-69
2021/03/11 00:48:16;;;;;;;64.03;28.25;;;;;;;-1.37;50.95;100572.91;1785858;80;21204;-69
2021/03/11 00:50:42;;;;;;;62.00;26.82;;;;;;;-1.38;51.02;100571.20;1785896;80;21132;-69
2021/03/11 00:53:08;;;;;;;64.58;28.50;;;;;;;-1.41;51.12;100563.09;1785961;80;21127;-69
2021/03/11 00:55:34;;;;;;;61.02;26.15;;;;;;;-1.42;51.17;100556.63;1785824;80;21145;-69
2021/03/11 00:58:01;;;;;;;62.35;27.07;;;;;;;-1.45;51.29;100547.20;1785968;80;22339;-69
2021/03/11 01:00:27;;;;;;;56.15;25.27;;;;;;;-1.45;51.36;100553.73;1785912;80;21914;-69
2021/03/11 01:02:53;;;;;;;62.38;26.02;;;;;;;-1.44;51.42;100548.05;1785710;80;21123;-69
2021/03/11 01:05:25;;;;;;;56.85;25.17;;;;;;;-1.45;51.50;100548.97;1785903;80;21112;-69
2021/03/11 01:07:52;;;;;;;46.02;23.83;;;;;;;-1.46;51.58;100546.81;1785068;80;21136;-69
2021/03/11 01:10:18;;;;;;;55.83;24.95;;;;;;;-1.46;51.66;100547.27;1786140;80;21198;-69
2021/03/11 01:12:44;;;;;;;55.23;24.92;;;;;;;-1.46;51.72;100555.12;1785825;80;21191;-69
2021/03/11 01:15:11;;;;;;;47.23;23.60;;;;;;;-1.46;51.78;100543.35;1785268;80;21128;-69
2021/03/11 01:17:38;;;;;;;58.68;26.95;;;;;;;-1.47;51.84;100535.12;1785757;79;21545;-69
2021/03/11 01:20:12;;;;;;;52.93;23.77;;;;;;;-1.47;51.89;100535.12;1785850;80;21123;-69
2021/03/11 01:22:38;;;;;;;46.20;21.02;;;;;;;-1.48;51.96;100532.16;1785258;80;22074;-69
2021/03/11 01:25:06;;;;;;;56.08;26.40;;;;;;;-1.49;52.03;100523.46;1786351;79;21159;-69
2021/03/11 01:27:32;;;;;;;48.20;23.70;;;;;;;-1.49;52.07;100513.47;1803893;79;21142;-69
2021/03/11 01:29:59;;;;;;;56.68;26.10;;;;;;;-1.52;52.15;100504.88;1803734;79;21126;-69
2021/03/11 01:32:26;;;;;;;55.03;24.20;;;;;;;-1.53;52.22;100505.80;1803863;79;21143;-69
2021/03/11 01:34:52;;;;;;;54.80;25.37;;;;;;;-1.54;52.27;100498.03;1803744;79;21159;-69
2021/03/11 01:37:19;;;;;;;51.88;23.83;;;;;;;-1.56;52.33;100488.16;1803774;79;21178;-69
2021/03/11 01:39:46;;;;;;;53.80;24.50;;;;;;;-1.56;52.40;100485.53;1803795;79;21175;-69
2021/03/11 01:42:12;;;;;;;64.58;26.27;;;;;;;-1.57;52.45;100483.38;1803804;79;21568;-69
2021/03/11 01:44:38;;;;;;;52.58;25.23;;;;;;;-1.58;52.51;100480.38;1803982;79;21135;-69
2021/03/11 01:47:04;;;;;;;61.00;26.68;;;;;;;-1.58;52.57;100471.70;1803673;79;21607;-69
2021/03/11 01:49:31;;;;;;;54.18;23.57;;;;;;;-1.60;52.66;100470.50;1803811;79;21102;-69
2021/03/11 01:51:57;;;;;;;60.67;27.42;;;;;;;-1.60;52.72;100465.27;1803688;79;21568;-69
2021/03/11 01:54:23;;;;;;;56.92;25.60;;;;;;;-1.62;52.79;100454.05;1803879;79;21592;-69
2021/03/11 01:56:50;;;;;;;64.37;26.05;;;;;;;-1.62;52.85;100452.73;1803863;79;21549;-69
2021/03/11 01:59:17;;;;;;;56.42;25.17;;;;;;;-1.60;52.92;100457.89;1803693;79;21151;-69
2021/03/11 02:01:43;;;;;;;57.35;27.65;;;;;;;-1.62;52.97;100454.05;1803692;79;21457;-70
2021/03/11 02:04:09;;;;;;;56.50;24.10;;;;;;;-1.61;53.04;100458.34;1803668;79;21119;-69
2021/03/11 02:06:36;;;;;;;54.88;24.35;;;;;;;-1.60;53.12;100453.97;1803720;79;21183;-69
2021/03/11 02:09:04;;;;;;;57.62;26.33;;;;;;;-1.61;53.17;100457.04;1803782;79;21596;-69
2021/03/11 02:11:30;;;;;;;60.63;27.02;;;;;;;-1.61;53.25;100450.50;1803877;79;22180;-69
2021/03/11 02:14:08;;;;;;;58.80;27.22;;;;;;;-1.62;53.32;100440.97;1724768;79;21868;-69
2021/03/11 02:16:38;;;;;;;51.05;21.87;;;;;;;-1.61;53.39;100445.27;1803700;79;21607;-69
2021/03/11 02:19:37;;;;;;;62.83;29.30;;;;;;;-1.58;53.48;100449.01;1803523;79;21255;-69
2021/03/11 02:22:25;;;;;;;49.23;22.85;;;;;;;-1.57;53.53;100442.86;1803789;79;21127;-70
2021/03/11 02:25:08;;;;;;;65.20;29.15;;;;;;;-1.54;53.65;100433.52;1803871;79;21245;-69
2021/03/11 02:28:07;;;;;;;50.98;24.35;;;;;;;-1.55;53.71;100431.83;1786962;79;21167;-69
2021/03/11 02:30:33;;;;;;;57.80;26.05;;;;;;;-1.52;53.79;100418.59;1710219;83;21222;-69
2021/03/11 02:32:59;;;;;;;49.05;23.65;;;;;;;-1.51;53.86;100413.72;1711097;83;21210;-69
2021/03/11 02:35:26;;;;;;;52.95;26.02;;;;;;;-1.49;53.90;100403.64;1686183;81;21139;-69
2021/03/11 02:37:52;;;;;;;50.35;23.90;;;;;;;-1.48;53.96;100392.26;1764816;81;21217;-69
2021/03/11 02:40:23;;;;;;;52.23;23.18;;;;;;;-1.47;54.02;100386.06;1741088;82;21172;-69
2021/03/11 02:42:50;;;;;;;50.48;23.98;;;;;;;-1.47;54.11;100379.07;1770054;81;21155;-70
2021/03/11 02:45:21;;;;;;;51.20;24.23;;;;;;;-1.47;54.19;100376.92;1769994;81;21684;-69
2021/03/11 02:47:47;;;;;;;51.13;26.30;;;;;;;-1.48;54.25;100368.72;1769449;81;21588;-70
2021/03/11 02:50:13;;;;;;;52.95;23.77;;;;;;;-1.47;54.33;100368.61;1746094;81;21964;-70
2021/03/11 02:52:40;;;;;;;60.63;25.90;;;;;;;-1.45;54.41;100367.22;1745928;81;21782;-70
2021/03/11 02:55:07;;;;;;;47.62;21.45;;;;;;;-1.44;54.46;100361.06;1770064;81;21134;-70
2021/03/11 02:57:33;;;;;;;54.08;26.93;;;;;;;-1.43;54.56;100349.65;1770180;81;21195;-70
2021/03/11 02:59:59;;;;;;;59.03;26.82;;;;;;;-1.44;54.61;100339.65;1769901;81;21092;-70
2021/03/11 03:02:26;;;;;;;59.90;26.17;;;;;;;-1.42;54.67;100333.03;1770160;81;22075;-70
2021/03/11 03:04:56;;;;;;;59.30;25.27;;;;;;;-1.40;54.73;100328.53;1770054;81;21140;-70
2021/03/11 03:07:22;;;;;;;58.15;27.42;;;;;;;-1.37;54.81;100325.75;1746629;81;21108;-70
2021/03/11 03:09:51;;;;;;;54.35;25.00;;;;;;;-1.36;54.91;100320.88;1770013;81;21139;-70
2021/03/11 03:12:17;;;;;;;51.68;23.75;;;;;;;-1.34;54.96;100318.55;1770162;81;21123;-70
2021/03/11 03:14:45;;;;;;;67.30;28.57;;;;;;;-1.31;55.05;100318.81;1770105;81;21251;-70
2021/03/11 03:17:13;;;;;;;64.85;29.67;;;;;;;-1.29;55.18;100314.31;1770053;79;21126;-70
2021/03/11 03:19:40;;;;;;;59.67;27.25;;;;;;;-1.27;55.27;100299.38;1770229;81;21104;-70
2021/03/11 03:22:07;;;;;;;55.20;26.25;;;;;;;-1.24;55.35;100296.56;1769716;81;47909;-70
2021/03/11 03:24:33;;;;;;;59.53;28.38;;;;;;;-1.19;55.47;100290.55;1770240;81;21115;-70
2021/03/11 03:26:59;;;;;;;59.55;26.40;;;;;;;-1.17;55.55;100279.08;1777866;80;22073;-70
2021/03/11 03:29:26;;;;;;;67.22;30.97;;;;;;;-1.15;55.67;100275.88;1783332;80;21675;-70
2021/03/11 03:31:53;;;;;;;70.03;29.82;;;;;;;-1.13;55.81;100265.33;1783588;80;21123;-70
2021/03/11 03:34:19;;;;;;;70.12;30.85;;;;;;;-1.13;55.91;100258.33;1783587;80;21133;-70
2021/03/11 03:36:45;;;;;;;69.65;30.35;;;;;;;-1.09;56.00;100266.81;1783733;80;21196;-70
2021/03/11 03:39:11;;;;;;;61.23;29.82;;;;;;;-1.07;56.08;100263.61;1783528;80;21204;-70
2021/03/11 03:41:41;;;;;;;65.00;28.92;;;;;;;-1.04;56.20;100255.56;1783606;79;21140;-70
2021/03/11 03:44:08;;;;;;;59.40;31.07;;;;;;;-1.01;56.29;100254.05;1783547;80;21140;-70
2021/03/11 03:46:34;;;;;;;56.92;27.87;;;;;;;-0.99;56.37;100249.57;1783606;80;21605;-70
2021/03/11 03:49:02;;;;;;;72.32;30.70;;;;;;;-0.98;56.48;100247.30;1783636;80;21803;-70
2021/03/11 03:51:31;;;;;;;67.50;31.40;;;;;;;-0.96;56.56;100254.59;1761863;80;21215;-70
2021/03/11 03:54:09;;;;;;;67.65;31.23;;;;;;;-0.95;56.66;100256.25;1783633;80;21164;-70
2021/03/11 03:56:43;;;;;;;63.25;30.17;;;;;;;-0.92;56.75;100246.92;1770240;80;21567;-70
2021/03/11 03:59:13;;;;;;;67.17;30.10;;;;;;;-0.90;56.85;100245.49;1783573;80;21164;-70
2021/03/11 04:01:41;;;;;;;64.65;27.98;;;;;;;-0.89;56.92;100246.72;1783691;80;21144;-70
2021/03/11 04:04:09;;;;;;;82.10;35.13;;;;;;;-0.87;57.00;100247.44;1783319;80;21257;-69
2021/03/11 04:06:35;;;;;;;76.20;34.05;;;;;;;-0.85;57.05;100233.80;1783402;80;21192;-70
2021/03/11 04:09:05;;;;;;;62.00;28.00;;;;;;;-0.83;57.14;100225.36;1783469;80;21557;-70
2021/03/11 04:11:31;;;;;;;65.50;31.40;;;;;;;-0.81;57.25;100218.23;1783577;80;21159;-70
2021/03/11 04:13:57;;;;;;;105.10;45.28;;;;;;;-0.79;57.34;100216.36;1783381;80;21148;-70
2021/03/11 04:16:23;;;;;;;68.35;33.23;;;;;;;-0.74;57.45;100212.14;1783595;80;21163;-69
2021/03/11 04:18:52;;;;;;;64.90;29.07;;;;;;;-0.72;57.53;100209.78;1783459;80;21140;-70
2021/03/11 04:21:19;;;;;;;57.88;29.82;;;;;;;-0.72;57.59;100196.69;1783528;80;21116;-70
2021/03/11 04:23:46;;;;;;;67.03;31.82;;;;;;;-0.69;57.68;100208.72;1783521;80;21195;-70
2021/03/11 04:26:12;;;;;;;60.58;30.08;;;;;;;-0.67;57.75;100202.43;1785163;79;21135;-70
2021/03/11 04:28:39;;;;;;;68.05;32.80;;;;;;;-0.65;57.83;100195.33;1797074;79;22139;-70
2021/03/11 04:31:05;;;;;;;66.42;30.72;;;;;;;-0.64;57.92;100199.63;1774410;79;21155;-70
2021/03/11 04:33:31;;;;;;;64.40;33.70;;;;;;;-0.61;57.99;100201.20;1797089;79;21088;-70
2021/03/11 04:35:58;;;;;;;57.78;28.65;;;;;;;-0.60;58.06;100181.94;1796983;79;21159;-70
2021/03/11 04:38:24;;;;;;;103.97;45.78;;;;;;;-0.58;58.16;100178.73;1796925;79;21651;-70
2021/03/11 04:40:52;;;;;;;79.62;36.38;;;;;;;-0.56;58.23;100175.05;1797180;79;21198;-70
2021/03/11 04:43:19;;;;;;;74.32;35.20;;;;;;;-0.54;58.28;100171.88;1796904;79;21542;-70
2021/03/11 04:45:46;;;;;;;72.40;32.93;;;;;;;-0.50;58.36;100160.72;1774926;79;21131;-70
2021/03/11 04:48:12;;;;;;;73.92;34.30;;;;;;;-0.48;58.43;100148.34;1797149;79;21537;-70
2021/03/11 04:50:39;;;;;;;68.12;29.07;;;;;;;-0.44;58.50;100149.81;1797092;79;21153;-70
2021/03/11 04:53:05;;;;;;;64.17;29.55;;;;;;;-0.40;58.56;100153.05;1796985;79;22110;-70
2021/03/11 04:55:32;;;;;;;71.12;30.57;;;;;;;-0.38;58.63;100145.44;1774854;79;21135;-70
2021/03/11 04:57:58;;;;;;;73.42;32.03;;;;;;;-0.35;58.70;100144.41;1797182;79;21118;-70
2021/03/11 05:00:26;;;;;;;78.95;35.60;;;;;;;-0.32;58.76;100140.27;1796880;79;21494;-70
2021/03/11 05:02:52;;;;;;;67.15;30.27;;;;;;;-0.31;58.79;100136.68;1797216;79;21617;-70
2021/03/11 05:05:27;;;;;;;73.75;34.67;;;;;;;-0.29;58.87;100126.95;1797114;79;22199;-70
2021/03/11 05:07:53;;;;;;;69.27;31.87;;;;;;;-0.29;58.90;100117.31;1796142;79;21286;-70
2021/03/11 05:10:20;;;;;;;68.83;28.83;;;;;;;-0.26;58.98;100112.31;1797020;79;21143;-70
2021/03/11 05:12:46;;;;;;;67.42;30.43;;;;;;;-0.25;59.06;100107.45;1797200;79;21127;-70
2021/03/11 05:15:13;;;;;;;60.83;29.92;;;;;;;-0.23;59.13;100091.14;1797103;79;21166;-70
2021/03/11 05:17:39;;;;;;;68.17;33.20;;;;;;;-0.22;59.16;100092.82;1797005;79;22061;-70
2021/03/11 05:20:06;;;;;;;68.72;30.60;;;;;;;-0.21;59.18;100087.45;1797120;79;21195;-70
2021/03/11 05:22:33;;;;;;;65.57;34.50;;;;;;;-0.20;59.22;100078.66;1797011;79;21155;-70
2021/03/11 05:24:59;;;;;;;66.90;33.30;;;;;;;-0.18;59.24;100075.47;1797133;79;21100;-70
2021/03/11 05:27:25;;;;;;;64.92;30.32;;;;;;;-0.16;59.27;100075.34;1800428;79;21155;-70
2021/03/11 05:29:52;;;;;;;74.00;40.98;;;;;;;-0.15;59.27;100070.48;1804439;79;21927;-70
2021/03/11 05:32:18;;;;;;;87.53;48.33;;;;;;;-0.14;59.29;100055.94;1804448;79;21134;-70
2021/03/11 05:34:45;;;;;;;83.45;42.43;;;;;;;-0.13;59.30;100047.61;1804164;79;21111;-70
2021/03/11 05:37:11;;;;;;;92.90;41.90;;;;;;;-0.11;59.31;100035.25;1777075;79;21246;-70
2021/03/11 05:39:38;;;;;;;104.17;46.13;;;;;;;-0.11;59.30;100033.94;1804242;79;21135;-70
2021/03/11 05:42:09;;;;;;;129.18;53.17;;;;;;;-0.09;59.28;100029.41;1804432;79;21204;-70
2021/03/11 05:44:38;;;;;;;110.90;42.58;;;;;;;-0.07;59.28;100023.09;1804041;79;21139;-70
2021/03/11 05:47:06;;;;;;;80.17;35.08;;;;;;;-0.05;59.27;100023.00;1804604;79;21171;-70
2021/03/11 05:49:34;;;;;;;59.40;26.77;;;;;;;-0.03;59.24;100017.16;1804092;79;21163;-70
2021/03/11 05:52:04;;;;;;;60.23;29.42;;;;;;;-0.02;59.24;100011.81;1804409;79;21110;-70
2021/03/11 05:54:30;;;;;;;61.53;25.92;;;;;;;0.00;59.23;100013.03;1804541;79;21190;-70
2021/03/11 05:56:56;;;;;;;61.10;27.80;;;;;;;0.02;59.23;100008.49;1804240;79;21138;-70
2021/03/11 05:59:23;;;;;;;57.67;27.82;;;;;;;0.04;59.20;99998.72;1804351;79;21642;-70
2021/03/11 06:01:51;;;;;;;58.83;27.98;;;;;;;0.04;59.18;99994.79;1804351;79;21118;-70
2021/03/11 06:04:17;;;;;;;54.05;24.30;;;;;;;0.07;59.17;99984.08;1804357;79;21151;-70
2021/03/11 06:06:43;;;;;;;64.80;28.07;;;;;;;0.10;59.16;99985.19;1804324;79;21773;-70
2021/03/11 06:09:10;;;;;;;58.45;29.67;;;;;;;0.13;59.13;99983.64;1804258;79;21171;-70
2021/03/11 06:11:37;;;;;;;62.00;28.55;;;;;;;0.17;59.11;99975.07;1804434;79;21556;-70
2021/03/11 06:14:04;;;;;;;56.80;27.50;;;;;;;0.19;59.09;99971.37;1804265;79;21146;-70
2021/03/11 06:16:31;;;;;;;56.83;28.40;;;;;;;0.21;59.07;99965.53;1804509;79;21147;-70
2021/03/11 06:18:57;;;;;;;51.25;24.32;;;;;;;0.23;59.05;99951.84;1804211;79;21552;-70
2021/03/11 06:21:24;;;;;;;52.98;26.02;;;;;;;0.27;59.03;99937.56;1804262;79;21162;-70
2021/03/11 06:23:50;;;;;;;57.88;26.55;;;;;;;0.31;58.99;99938.16;1804371;79;21159;-70
2021/03/11 06:26:16;;;;;;;51.35;26.40;;;;;;;0.31;58.96;99939.00;1804477;79;21151;-70
2021/03/11 06:28:51;;;;;;;54.98;26.00;;;;;;;0.34;58.96;99928.28;1797740;79;21127;-70
2021/03/11 06:31:27;;;;;;;54.73;26.07;;;;;;;0.37;58.94;99930.66;1796960;79;21509;-70
2021/03/11 06:33:55;;;;;;;53.13;27.48;;;;;;;0.38;58.91;99915.30;1796947;79;21127;-70
2021/03/11 06:36:24;;;;;;;52.33;26.15;;;;;;;0.41;58.87;99901.95;1785670;79;22074;-71
2021/03/11 06:38:50;;;;;;;54.40;26.10;;;;;;;0.44;58.87;99900.39;1796531;79;21155;-71
2021/03/11 06:41:17;;;;;;;47.48;23.90;;;;;;;0.48;58.84;99898.37;1781035;79;21143;-70
2021/03/11 06:44:00;;;;;;;53.65;26.57;;;;;;;0.52;58.82;99895.03;1773613;80;21437;-71
2021/03/11 06:46:28;;;;;;;50.30;25.27;;;;;;;0.55;58.78;99893.48;1773684;80;21170;-70
2021/03/11 06:49:09;;;;;;;54.45;25.10;;;;;;;0.59;58.76;99889.67;1773522;80;21190;-70
2021/03/11 06:51:35;;;;;;;48.40;24.52;;;;;;;0.63;58.73;99888.48;1773342;80;21150;-70
2021/03/11 06:54:02;;;;;;;48.40;23.27;;;;;;;0.68;58.71;99883.69;1773662;80;21142;-70
2021/03/11 06:56:29;;;;;;;47.40;23.95;;;;;;;0.72;58.66;99880.72;1773745;80;21958;-71
2021/03/11 06:59:02;;;;;;;47.83;25.50;;;;;;;0.75;58.62;99867.34;1773538;80;21590;-71
2021/03/11 07:01:33;;;;;;;50.15;23.90;;;;;;;0.80;58.57;99866.52;1773686;80;21145;-71
2021/03/11 07:04:01;;;;;;;64.77;29.67;;;;;;;0.85;58.52;99864.34;1773648;80;21139;-70
2021/03/11 07:06:36;;;;;;;50.95;23.67;;;;;;;0.89;58.49;99849.20;1763295;81;21123;-70
2021/03/11 07:09:05;;;;;;;49.55;24.85;;;;;;;0.93;58.44;99858.50;1728850;83;21140;-71
2021/03/11 07:11:31;;;;;;;52.10;24.00;;;;;;;0.96;58.38;99855.15;1763264;81;21159;-70
2021/03/11 07:14:00;;;;;;;53.90;24.77;;;;;;;0.98;58.32;99861.61;1728989;83;21593;-71
2021/03/11 07:16:28;;;;;;;92.95;48.83;;;;;;;1.03;58.30;99864.67;1763340;81;21190;-71
2021/03/11 07:19:15;;;;;;;517.40;266.30;;;;;;;1.09;58.23;99864.17;1729142;83;21168;-71
2021/03/11 07:21:51;;;;;;;101.07;55.40;;;;;;;1.14;58.17;99870.38;1702989;82;21534;-71
2021/03/11 07:24:35;;;;;;;160.67;90.17;;;;;;;1.19;58.13;99873.02;1709949;82;21150;-71
2021/03/11 07:27:02;;;;;;;79.17;42.67;;;;;;;1.21;58.06;99871.08;1741481;80;21146;-71
2021/03/11 07:29:29;;;;;;;90.62;44.45;;;;;;;1.26;58.01;99871.56;1762514;80;21168;-70
2021/03/11 07:31:56;;;;;;;79.03;43.83;;;;;;;1.29;57.99;99870.00;1757118;80;21111;-70
2021/03/11 07:34:33;;;;;;;68.75;36.55;;;;;;;1.33;57.91;99856.98;1749986;80;22021;-70
2021/03/11 07:36:59;;;;;;;57.27;33.18;;;;;;;1.35;57.85;99852.41;1757584;80;21218;-70
2021/03/11 07:39:35;;;;;;;61.40;32.78;;;;;;;1.39;57.81;99847.27;1779102;80;21171;-70
2021/03/11 07:42:04;;;;;;;58.17;31.20;;;;;;;1.43;57.75;99840.81;1779084;80;21108;-70
2021/03/11 07:44:31;;;;;;;51.65;25.95;;;;;;;1.47;57.74;99833.04;1757351;80;21116;-70
2021/03/11 07:46:58;;;;;;;42.95;22.65;;;;;;;1.49;57.66;99821.07;1772859;80;21139;-70
2021/03/11 07:49:29;;;;;;;41.90;22.90;;;;;;;1.48;57.64;99807.09;1748240;81;21176;-70
2021/03/11 07:51:56;;;;;;;48.10;25.17;;;;;;;1.48;57.58;99804.47;1750736;80;21146;-70
2021/03/11 07:54:23;;;;;;;54.70;21.55;;;;;;;1.50;57.58;99789.91;1748238;81;21109;-70
2021/03/11 07:56:49;;;;;;;41.77;20.52;;;;;;;1.50;57.58;99789.43;1748358;82;21531;-70
2021/03/11 07:59:16;;;;;;;39.33;20.27;;;;;;;1.49;57.55;99768.05;1748393;81;22010;-70
2021/03/11 08:01:52;;;;;;;47.65;24.07;;;;;;;1.45;57.68;99757.44;1748357;81;21198;-70
2021/03/11 08:04:19;;;;;;;52.17;27.85;;;;;;;1.43;57.76;99750.66;1770010;80;21148;-70
2021/03/11 08:06:45;;;;;;;42.40;21.02;;;;;;;1.38;57.91;99752.34;1757188;80;21216;-71
2021/03/11 08:09:12;;;;;;;53.35;26.35;;;;;;;1.32;58.14;99729.23;1793575;80;21084;-70
2021/03/11 08:11:40;;;;;;;61.95;30.52;;;;;;;1.29;58.33;99728.17;1798045;79;21197;-70
2021/03/11 08:14:24;;;;;;;50.78;23.73;;;;;;;1.29;58.51;99716.36;1798298;79;21179;-70
2021/03/11 08:16:52;;;;;;;50.40;25.23;;;;;;;1.31;58.65;99707.85;1793412;80;21604;-71
2021/03/11 08:19:42;;;;;;;77.37;35.13;;;;;;;1.34;58.84;99694.94;1780970;80;21152;-70
2021/03/11 08:22:08;;;;;;;48.48;23.45;;;;;;;1.37;58.99;99704.70;1789838;79;21513;-70
2021/03/11 08:24:43;;;;;;;88.25;40.58;;;;;;;1.43;59.14;99693.70;1766609;81;22443;-70
2021/03/11 08:27:32;;;;;;;122.53;54.60;;;;;;;1.47;59.24;99692.97;1766569;81;21132;-71
2021/03/11 08:29:58;;;;;;;57.23;30.70;;;;;;;1.52;59.34;99690.77;1766755;80;21156;-70
2021/03/11 08:32:51;;;;;;;53.38;25.97;;;;;;;1.61;59.38;99690.48;1766696;80;21131;-71
2021/03/11 08:35:40;;;;;;;70.22;36.80;;;;;;;1.68;59.47;99678.48;1761547;79;21153;-71
2021/03/11 08:38:27;;;;;;;70.17;35.73;;;;;;;1.77;59.50;99671.94;1766586;81;21168;-71
2021/03/11 08:41:03;;;;;;;70.67;33.88;;;;;;;1.86;59.55;99672.97;1766565;80;21166;-71
2021/03/11 08:43:41;;;;;;;53.87;24.85;;;;;;;1.94;59.59;99664.74;1766769;80;21147;-71
2021/03/11 08:46:18;;;;;;;42.05;23.42;;;;;;;2.02;59.60;99657.51;1766625;80;21116;-71
2021/03/11 08:49:00;;;;;;;48.60;23.38;;;;;;;2.09;59.63;99644.17;1766662;80;21117;-71
2021/03/11 08:51:32;;;;;;;47.38;26.23;;;;;;;2.17;59.65;99654.86;1766690;81;21203;-71
2021/03/11 08:54:06;;;;;;;39.98;21.02;;;;;;;2.25;59.66;99653.67;1779675;79;21179;-71
2021/03/11 08:56:40;;;;;;;40.63;21.37;;;;;;;2.35;59.66;99646.66;1767186;79;21142;-71
2021/03/11 08:59:12;;;;;;;42.35;22.07;;;;;;;2.46;59.68;99638.62;1749553;79;21159;-71
2021/03/11 09:01:48;;;;;;;65.10;30.15;;;;;;;2.56;59.66;99640.45;1798257;79;21139;-71
2021/03/11 09:04:23;;;;;;;61.35;29.45;;;;;;;2.63;59.67;99633.18;1798106;79;21315;-71
2021/03/11 09:06:57;;;;;;;57.85;27.00;;;;;;;2.69;59.65;99626.03;1798101;79;21135;-71
2021/03/11 09:09:49;;;;;;;92.02;42.58;;;;;;;2.74;59.65;99609.35;1790945;79;21199;-71
2021/03/11 09:12:35;;;;;;;92.97;41.37;;;;;;;2.81;59.63;99603.04;1785973;79;21568;-72
2021/03/11 09:15:05;;;;;;;62.05;29.27;;;;;;;2.85;59.62;99597.33;1777842;79;21163;-71
2021/03/11 09:17:32;;;;;;;58.80;29.60;;;;;;;2.89;59.62;99589.98;1766929;80;21160;-71
2021/03/11 09:20:14;;;;;;;66.07;30.02;;;;;;;2.91;59.61;99574.89;1766583;81;21564;-71
2021/03/11 09:22:50;;;;;;;60.23;29.18;;;;;;;2.94;59.60;99571.97;1766821;81;21124;-71
2021/03/11 09:25:18;;;;;;;62.88;36.17;;;;;;;2.98;59.59;99574.67;1766483;80;21171;-71
2021/03/11 09:28:01;;;;;;;82.90;40.95;;;;;;;3.02;59.59;99566.83;1768415;78;21191;-72
2021/03/11 09:30:31;;;;;;;42.55;24.00;;;;;;;3.05;59.59;99562.59;1769122;79;21891;-71
2021/03/11 09:33:17;;;;;;;49.90;27.67;;;;;;;3.10;59.59;99556.39;1765105;79;21160;-71
2021/03/11 09:35:42;;;;;;;40.75;22.77;;;;;;;3.14;59.59;99549.87;1771771;80;21554;-71
2021/03/11 09:38:11;;;;;;;44.77;24.80;;;;;;;3.21;59.62;99555.39;1792785;80;21125;-71
2021/03/11 09:40:42;;;;;;;50.08;25.50;;;;;;;3.28;59.59;99555.16;1796355;79;21139;-71
2021/03/11 09:43:20;;;;;;;48.17;27.00;;;;;;;3.35;59.59;99537.31;1796474;79;21218;-71
2021/03/11 09:45:58;;;;;;;52.75;27.77;;;;;;;3.42;59.61;99543.66;1825233;78;21159;-71
2021/03/11 09:48:30;;;;;;;46.40;25.57;;;;;;;3.47;59.62;99541.44;1817781;78;21137;-71
2021/03/11 09:51:14;;;;;;;38.20;20.50;;;;;;;3.50;59.65;99533.23;1812796;78;21147;-71
2021/03/11 09:53:58;;;;;;;48.45;24.12;;;;;;;3.53;59.68;99528.98;1796170;79;21112;-71
2021/03/11 09:56:30;;;;;;;47.43;24.72;;;;;;;3.56;59.73;99524.38;1796273;79;21239;-71
2021/03/11 09:59:04;;;;;;;52.67;27.13;;;;;;;3.59;59.80;99525.43;1825135;78;21123;-71
2021/03/11 10:01:39;;;;;;;46.33;22.58;;;;;;;3.62;59.86;99529.09;1825441;78;21116;-72
2021/03/11 10:04:16;;;;;;;42.45;24.72;;;;;;;3.63;59.93;99514.91;1802921;78;21118;-71
2021/03/11 10:06:55;;;;;;;49.03;26.82;;;;;;;3.67;59.99;99513.64;1765098;80;21216;-71
2021/03/11 10:09:22;;;;;;;48.35;28.12;;;;;;;3.72;60.06;99515.35;1773888;80;21199;-72
2021/03/11 10:11:52;;;;;;;52.70;28.57;;;;;;;3.71;60.11;99517.16;1773462;80;21149;-71
2021/03/11 10:14:22;;;;;;;139.97;70.55;;;;;;;3.74;60.20;99509.43;1773704;80;21558;-71
2021/03/11 10:16:53;;;;;;;92.12;42.38;;;;;;;3.75;60.25;99500.55;1773646;79;21901;-71
2021/03/11 10:19:27;;;;;;;73.15;36.95;;;;;;;3.72;60.42;99493.78;1824958;78;21111;-71
2021/03/11 10:22:10;;;;;;;168.37;90.75;;;;;;;3.66;60.60;99501.45;1820427;78;21207;-71
2021/03/11 10:24:45;;;;;;;61.95;37.00;;;;;;;3.63;60.73;99489.38;1773036;80;21163;-71
2021/03/11 10:27:30;;;;;;;88.45;45.70;;;;;;;3.63;60.95;99491.18;1788924;80;21101;-71
2021/03/11 10:30:20;;;;;;;61.30;35.08;;;;;;;3.62;61.13;99471.92;1780371;79;21163;-71
2021/03/11 10:32:58;;;;;;;62.75;36.95;;;;;;;3.65;61.33;99468.16;1768491;79;21157;-72
2021/03/11 10:35:37;;;;;;;46.25;25.35;;;;;;;3.71;61.45;99460.95;1771702;81;21156;-72
2021/03/11 10:41:14;;;;;;;45.85;27.00;;;;;;;3.87;61.81;99444.00;1815758;77;22849;-72
2021/03/11 10:43:41;;;;;;;54.08;30.10;;;;;;;3.91;61.95;99439.56;1787817;80;21143;-72
2021/03/11 10:46:14;;;;;;;85.05;42.03;;;;;;;4.05;62.08;99436.87;1786248;80;21548;-72
2021/03/11 10:48:52;;;;;;;75.85;38.80;;;;;;;4.12;62.24;99444.52;1749127;81;21215;-72
2021/03/11 10:51:20;;;;;;;127.85;63.98;;;;;;;4.14;62.39;99428.55;1757071;80;21160;-74
2021/03/11 10:53:46;;;;;;;189.97;91.50;;;;;;;4.13;62.56;99427.72;1779316;79;21163;-74
2021/03/11 10:56:13;;;;;;;63.08;35.98;;;;;;;4.12;62.66;99424.73;1756951;80;21151;-74
2021/03/11 10:58:40;;;;;;;54.60;30.30;;;;;;;4.12;62.82;99408.91;1756852;80;21576;-71
2021/03/11 11:01:09;;;;;;;50.20;29.18;;;;;;;4.12;62.93;99423.94;1757185;81;21139;-71
2021/03/11 11:03:38;;;;;;;52.67;28.10;;;;;;;4.10;63.04;99409.56;1757015;81;21119;-71
2021/03/11 11:06:04;;;;;;;53.68;29.50;;;;;;;4.06;63.14;99402.94;1756760;81;21619;-71
2021/03/11 11:08:31;;;;;;;47.78;26.45;;;;;;;4.02;63.27;99408.17;1764030;78;21112;-71
2021/03/11 11:10:58;;;;;;;46.20;26.20;;;;;;;4.00;63.40;99391.68;1797033;78;21274;-71
2021/03/11 11:13:24;;;;;;;41.37;25.10;;;;;;;3.97;63.51;99397.27;1777848;80;21127;-71
2021/03/11 11:15:50;;;;;;;40.35;21.68;;;;;;;3.93;63.65;99394.59;1774162;80;21890;-71
2021/03/11 11:18:16;;;;;;;42.48;25.45;;;;;;;3.88;63.86;99372.62;1719920;80;21119;-71
2021/03/11 11:20:43;;;;;;;47.65;26.25;;;;;;;3.82;64.03;99381.63;1746950;82;21142;-71
2021/03/11 11:23:09;;;;;;;49.38;27.58;;;;;;;3.77;64.25;99382.56;1749251;81;21616;-71
2021/03/11 11:25:35;;;;;;;42.90;25.55;;;;;;;3.67;64.50;99384.45;1732070;81;21585;-71
2021/03/11 11:28:01;;;;;;;45.65;27.13;;;;;;;3.58;64.74;99379.62;1730469;81;21585;-71
2021/03/11 11:30:28;;;;;;;49.27;26.68;;;;;;;3.52;65.02;99355.98;1753465;81;21144;-71
2021/03/11 11:32:54;;;;;;;54.13;29.42;;;;;;;3.40;65.34;99359.84;1753268;81;21144;-71